sensor_id;sensor_type;location;lat;lon;timestamp;pressure;altitude;pressure_sealevel;temperature;humidity
28606;BME280;46498;49.968;7.754;2023-04-12T00:04:13;96458.00;;;6.99;99.47
28606;BME280;46498;49.968;7.754;2023-04-12T00:09:15;96447.00;;;6.71;100.00
28606;BME280;46498;49.968;7.754;2023-04-12T00:14:16;96434.00;;;6.49;100.00
28606;BME280;46498;49.968;7.754;2023-04-12T00:19:17;96420.00;;;6.43;100.00
28606;BME280;46498;49.968;7.754;2023-04-12T00:24:18;96415.00;;;6.53;100.00
28606;BME280;46498;49.968;7.754;2023-04-12T00:29:19;96409.00;;;6.35;100.00
28606;BME280;46498;49.968;7.754;2023-04-12T00:34:21;96399.00;;;6.32;100.00
28606;BME280;46498;49.968;7.754;2023-04-12T00:39:22;96397.00;;;6.19;100.00
28606;BME280;46498;49.968;7.754;2023-04-12T00:44:23;96392.00;;;6.21;100.00
28606;BME280;46498;49.968;7.754;2023-04-12T00:49:26;96379.00;;;6.01;100.00
28606;BME280;46498;49.968;7.754;2023-04-12T00:54:30;96369.00;;;5.94;100.00
28606;BME280;46498;49.968;7.754;2023-04-12T00:59:32;96356.00;;;6.02;100.00
28606;BME280;46498;49.968;7.754;2023-04-12T01:04:33;96356.00;;;5.85;100.00
28606;BME280;46498;49.968;7.754;2023-04-12T01:10:19;96338.00;;;5.77;100.00
28606;BME280;46498;49.968;7.754;2023-04-12T01:15:30;96322.00;;;5.82;100.00
28606;BME280;46498;49.968;7.754;2023-04-12T01:20:39;96309.00;;;5.72;100.00
28606;BME280;46498;49.968;7.754;2023-04-12T01:26:16;96293.00;;;5.72;100.00
28606;BME280;46498;49.968;7.754;2023-04-12T01:31:21;96286.00;;;5.64;100.00
28606;BME280;46498;49.968;7.754;2023-04-12T01:36:26;96277.00;;;5.44;100.00
28606;BME280;46498;49.968;7.754;2023-04-12T01:41:28;96272.00;;;5.38;100.00
28606;BME280;46498;49.968;7.754;2023-04-12T01:46:28;96247.00;;;5.31;100.00
28606;BME280;46498;49.968;7.754;2023-04-12T01:52:18;96242.00;;;5.36;100.00
28606;BME280;46498;49.968;7.754;2023-04-12T01:57:21;96241.00;;;5.37;100.00
28606;BME280;46498;49.968;7.754;2023-04-12T02:02:23;96226.00;;;5.36;100.00
28606;BME280;46498;49.968;7.754;2023-04-12T02:07:25;96225.00;;;5.52;100.00
28606;BME280;46498;49.968;7.754;2023-04-12T02:12:27;96219.00;;;5.37;100.00
28606;BME280;46498;49.968;7.754;2023-04-12T02:17:29;96198.00;;;5.37;100.00
28606;BME280;46498;49.968;7.754;2023-04-12T02:22:30;96188.00;;;5.34;100.00
28606;BME280;46498;49.968;7.754;2023-04-12T02:27:31;96180.00;;;5.36;100.00
28606;BME280;46498;49.968;7.754;2023-04-12T02:32:32;96178.00;;;5.26;100.00
28606;BME280;46498;49.968;7.754;2023-04-12T02:37:47;96165.00;;;5.09;100.00
28606;BME280;46498;49.968;7.754;2023-04-12T02:42:48;96149.00;;;4.99;100.00
28606;BME280;46498;49.968;7.754;2023-04-12T02:47:49;96135.00;;;5.00;100.00
28606;BME280;46498;49.968;7.754;2023-04-12T02:52:51;96132.00;;;5.01;100.00
28606;BME280;46498;49.968;7.754;2023-04-12T02:57:53;96123.00;;;5.06;100.00
28606;BME280;46498;49.968;7.754;2023-04-12T03:02:55;96109.00;;;5.08;100.00
28606;BME280;46498;49.968;7.754;2023-04-12T03:08:01;96098.00;;;5.16;100.00
28606;BME280;46498;49.968;7.754;2023-04-12T03:13:11;96091.00;;;5.12;100.00
28606;BME280;46498;49.968;7.754;2023-04-12T03:18:15;96082.00;;;5.21;100.00
28606;BME280;46498;49.968;7.754;2023-04-12T03:23:19;96069.00;;;5.13;100.00
28606;BME280;46498;49.968;7.754;2023-04-12T03:28:24;96062.00;;;5.16;100.00
28606;BME280;46498;49.968;7.754;2023-04-12T03:33:26;96052.00;;;5.13;100.00
28606;BME280;46498;49.968;7.754;2023-04-12T03:38:32;96037.00;;;5.13;100.00
28606;BME280;46498;49.968;7.754;2023-04-12T03:43:33;96021.00;;;5.00;100.00
28606;BME280;46498;49.968;7.754;2023-04-12T03:48:40;96008.00;;;4.98;100.00
28606;BME280;46498;49.968;7.754;2023-04-12T03:53:42;95993.00;;;5.03;100.00
28606;BME280;46498;49.968;7.754;2023-04-12T03:58:47;95979.00;;;4.95;100.00
28606;BME280;46498;49.968;7.754;2023-04-12T04:03:49;95966.00;;;4.97;100.00
28606;BME280;46498;49.968;7.754;2023-04-12T04:08:58;95952.00;;;4.91;100.00
28606;BME280;46498;49.968;7.754;2023-04-12T04:14:00;95943.00;;;4.96;100.00
28606;BME280;46498;49.968;7.754;2023-04-12T04:19:01;95936.00;;;4.95;100.00
28606;BME280;46498;49.968;7.754;2023-04-12T04:24:03;95922.00;;;4.88;100.00
28606;BME280;46498;49.968;7.754;2023-04-12T04:29:08;95924.00;;;4.96;100.00
28606;BME280;46498;49.968;7.754;2023-04-12T04:34:12;95904.00;;;4.94;100.00
28606;BME280;46498;49.968;7.754;2023-04-12T04:39:18;95896.00;;;4.92;100.00
28606;BME280;46498;49.968;7.754;2023-04-12T04:44:19;95898.00;;;4.94;100.00
28606;BME280;46498;49.968;7.754;2023-04-12T04:49:26;95894.00;;;4.77;100.00
28606;BME280;46498;49.968;7.754;2023-04-12T04:54:28;95885.00;;;4.78;100.00
28606;BME280;46498;49.968;7.754;2023-04-12T04:59:30;95878.00;;;4.73;100.00
28606;BME280;46498;49.968;7.754;2023-04-12T05:04:45;95870.00;;;4.72;100.00
28606;BME280;46498;49.968;7.754;2023-04-12T05:09:48;95855.00;;;4.91;100.00
28606;BME280;46498;49.968;7.754;2023-04-12T05:14:49;95835.00;;;4.81;100.00
28606;BME280;46498;49.968;7.754;2023-04-12T05:19:52;95840.00;;;4.80;100.00
28606;BME280;46498;49.968;7.754;2023-04-12T05:24:54;95836.00;;;4.86;100.00
28606;BME280;46498;49.968;7.754;2023-04-12T05:29:56;95811.00;;;4.86;100.00
28606;BME280;46498;49.968;7.754;2023-04-12T05:34:58;95808.00;;;4.80;100.00
28606;BME280;46498;49.968;7.754;2023-04-12T05:39:59;95798.00;;;4.91;100.00
28606;BME280;46498;49.968;7.754;2023-04-12T05:45:00;95788.00;;;4.85;100.00
28606;BME280;46498;49.968;7.754;2023-04-12T05:50:01;95779.00;;;4.95;100.00
28606;BME280;46498;49.968;7.754;2023-04-12T05:55:04;95768.00;;;4.91;100.00
28606;BME280;46498;49.968;7.754;2023-04-12T06:00:06;95751.00;;;5.03;100.00
28606;BME280;46498;49.968;7.754;2023-04-12T06:05:17;95761.00;;;5.06;100.00
28606;BME280;46498;49.968;7.754;2023-04-12T06:10:19;95745.00;;;5.08;100.00
28606;BME280;46498;49.968;7.754;2023-04-12T06:15:25;95737.00;;;5.08;100.00
28606;BME280;46498;49.968;7.754;2023-04-12T06:20:37;95736.00;;;5.27;100.00
28606;BME280;46498;49.968;7.754;2023-04-12T06:25:48;95723.00;;;5.18;100.00
28606;BME280;46498;49.968;7.754;2023-04-12T06:30:50;95715.00;;;5.22;100.00
28606;BME280;46498;49.968;7.754;2023-04-12T06:35:51;95704.00;;;5.36;100.00
28606;BME280;46498;49.968;7.754;2023-04-12T06:40:53;95691.00;;;5.33;100.00
28606;BME280;46498;49.968;7.754;2023-04-12T06:45:54;95681.00;;;5.42;100.00
28606;BME280;46498;49.968;7.754;2023-04-12T06:50:56;95669.00;;;5.45;100.00
28606;BME280;46498;49.968;7.754;2023-04-12T06:55:57;95656.00;;;5.48;100.00
28606;BME280;46498;49.968;7.754;2023-04-12T07:01:05;95647.00;;;5.42;100.00
28606;BME280;46498;49.968;7.754;2023-04-12T07:06:06;95646.00;;;5.47;100.00
28606;BME280;46498;49.968;7.754;2023-04-12T07:11:24;95623.00;;;5.51;100.00
28606;BME280;46498;49.968;7.754;2023-04-12T07:16:26;95629.00;;;5.57;100.00
28606;BME280;46498;49.968;7.754;2023-04-12T07:21:27;95613.00;;;5.66;100.00
28606;BME280;46498;49.968;7.754;2023-04-12T07:26:28;95617.00;;;5.76;100.00
28606;BME280;46498;49.968;7.754;2023-04-12T07:31:30;95599.00;;;5.78;100.00
28606;BME280;46498;49.968;7.754;2023-04-12T07:36:31;95597.00;;;5.95;100.00
28606;BME280;46498;49.968;7.754;2023-04-12T07:41:32;95598.00;;;6.06;100.00
28606;BME280;46498;49.968;7.754;2023-04-12T07:46:33;95590.00;;;6.15;100.00
28606;BME280;46498;49.968;7.754;2023-04-12T07:51:34;95586.00;;;6.19;100.00
28606;BME280;46498;49.968;7.754;2023-04-12T07:56:35;95576.00;;;6.21;100.00
28606;BME280;46498;49.968;7.754;2023-04-12T08:01:36;95569.00;;;6.25;100.00
28606;BME280;46498;49.968;7.754;2023-04-12T08:06:37;95567.00;;;6.33;100.00
28606;BME280;46498;49.968;7.754;2023-04-12T08:11:37;95563.00;;;6.39;100.00
28606;BME280;46498;49.968;7.754;2023-04-12T08:16:38;95555.00;;;6.47;100.00
28606;BME280;46498;49.968;7.754;2023-04-12T08:21:39;95548.00;;;6.53;100.00
28606;BME280;46498;49.968;7.754;2023-04-12T08:26:40;95543.00;;;6.61;100.00
28606;BME280;46498;49.968;7.754;2023-04-12T08:31:41;95549.00;;;6.67;100.00
28606;BME280;46498;49.968;7.754;2023-04-12T08:36:42;95538.00;;;6.69;100.00
28606;BME280;46498;49.968;7.754;2023-04-12T08:41:43;95536.00;;;6.72;100.00
28606;BME280;46498;49.968;7.754;2023-04-12T08:46:45;95534.00;;;6.77;100.00
28606;BME280;46498;49.968;7.754;2023-04-12T08:51:47;95527.00;;;6.72;100.00
28606;BME280;46498;49.968;7.754;2023-04-12T08:56:48;95519.00;;;6.90;100.00
28606;BME280;46498;49.968;7.754;2023-04-12T09:01:49;95513.00;;;6.90;100.00
28606;BME280;46498;49.968;7.754;2023-04-12T09:06:51;95511.00;;;6.87;100.00
28606;BME280;46498;49.968;7.754;2023-04-12T09:12:05;95501.00;;;6.97;100.00
28606;BME280;46498;49.968;7.754;2023-04-12T09:17:23;95486.00;;;7.02;100.00
28606;BME280;46498;49.968;7.754;2023-04-12T09:22:34;95475.00;;;7.11;100.00
28606;BME280;46498;49.968;7.754;2023-04-12T09:27:50;95463.00;;;7.22;100.00
28606;BME280;46498;49.968;7.754;2023-04-12T09:32:51;95463.00;;;7.31;100.00
28606;BME280;46498;49.968;7.754;2023-04-12T09:37:57;95457.00;;;7.29;100.00
28606;BME280;46498;49.968;7.754;2023-04-12T09:43:06;95454.00;;;7.43;100.00
28606;BME280;46498;49.968;7.754;2023-04-12T09:48:17;95451.00;;;7.39;100.00
28606;BME280;46498;49.968;7.754;2023-04-12T09:53:18;95442.00;;;7.42;100.00
28606;BME280;46498;49.968;7.754;2023-04-12T09:58:20;95446.00;;;7.43;100.00
28606;BME280;46498;49.968;7.754;2023-04-12T10:03:21;95433.00;;;7.45;100.00
28606;BME280;46498;49.968;7.754;2023-04-12T10:08:22;95429.00;;;7.55;100.00
28606;BME280;46498;49.968;7.754;2023-04-12T10:13:24;95420.00;;;7.69;100.00
28606;BME280;46498;49.968;7.754;2023-04-12T10:18:27;95426.00;;;7.85;100.00
28606;BME280;46498;49.968;7.754;2023-04-12T10:23:30;95417.00;;;8.00;100.00
28606;BME280;46498;49.968;7.754;2023-04-12T10:28:32;95409.00;;;8.23;100.00
28606;BME280;46498;49.968;7.754;2023-04-12T10:33:36;95403.00;;;8.32;100.00
28606;BME280;46498;49.968;7.754;2023-04-12T10:38:46;95400.00;;;8.39;100.00
28606;BME280;46498;49.968;7.754;2023-04-12T10:43:50;95394.00;;;8.49;100.00
28606;BME280;46498;49.968;7.754;2023-04-12T10:48:52;95392.00;;;8.53;100.00
28606;BME280;46498;49.968;7.754;2023-04-12T10:54:31;95388.00;;;8.59;100.00
28606;BME280;46498;49.968;7.754;2023-04-12T11:02:11;95389.00;;;8.78;100.00
28606;BME280;46498;49.968;7.754;2023-04-12T11:07:17;95385.00;;;8.72;100.00
28606;BME280;46498;49.968;7.754;2023-04-12T11:12:38;95382.00;;;9.03;100.00
28606;BME280;46498;49.968;7.754;2023-04-12T11:17:40;95376.00;;;9.03;100.00
28606;BME280;46498;49.968;7.754;2023-04-12T11:22:41;95366.00;;;9.11;100.00
28606;BME280;46498;49.968;7.754;2023-04-12T11:27:50;95374.00;;;9.17;100.00
28606;BME280;46498;49.968;7.754;2023-04-12T11:32:52;95371.00;;;9.33;100.00
28606;BME280;46498;49.968;7.754;2023-04-12T11:37:53;95369.00;;;9.76;100.00
28606;BME280;46498;49.968;7.754;2023-04-12T11:42:58;95371.00;;;10.30;100.00
28606;BME280;46498;49.968;7.754;2023-04-12T11:47:59;95368.00;;;10.51;100.00
28606;BME280;46498;49.968;7.754;2023-04-12T11:53:13;95384.00;;;10.31;100.00
28606;BME280;46498;49.968;7.754;2023-04-12T11:58:13;95387.00;;;10.40;100.00
28606;BME280;46498;49.968;7.754;2023-04-12T12:03:14;95371.00;;;10.37;100.00
28606;BME280;46498;49.968;7.754;2023-04-12T12:08:16;95370.00;;;10.36;100.00
28606;BME280;46498;49.968;7.754;2023-04-12T12:13:18;95367.00;;;10.59;100.00
28606;BME280;46498;49.968;7.754;2023-04-12T12:18:24;95390.00;;;10.47;100.00
28606;BME280;46498;49.968;7.754;2023-04-12T12:23:30;95377.00;;;10.52;100.00
28606;BME280;46498;49.968;7.754;2023-04-12T12:28:38;95357.00;;;10.78;100.00
28606;BME280;46498;49.968;7.754;2023-04-12T12:33:39;95345.00;;;10.74;100.00
28606;BME280;46498;49.968;7.754;2023-04-12T12:38:51;95365.00;;;11.02;100.00
28606;BME280;46498;49.968;7.754;2023-04-12T12:43:52;95374.00;;;11.51;100.00
28606;BME280;46498;49.968;7.754;2023-04-12T12:48:53;95376.00;;;11.53;100.00
28606;BME280;46498;49.968;7.754;2023-04-12T12:53:54;95387.00;;;10.97;100.00
28606;BME280;46498;49.968;7.754;2023-04-12T12:58:55;95379.00;;;10.60;100.00
28606;BME280;46498;49.968;7.754;2023-04-12T13:03:56;95379.00;;;10.94;100.00
28606;BME280;46498;49.968;7.754;2023-04-12T13:08:58;95373.00;;;11.18;100.00
28606;BME280;46498;49.968;7.754;2023-04-12T13:13:59;95386.00;;;11.48;100.00
28606;BME280;46498;49.968;7.754;2023-04-12T13:19:00;95374.00;;;11.71;100.00
28606;BME280;46498;49.968;7.754;2023-04-12T13:24:01;95371.00;;;12.21;100.00
28606;BME280;46498;49.968;7.754;2023-04-12T13:29:02;95384.00;;;11.83;100.00
28606;BME280;46498;49.968;7.754;2023-04-12T13:34:04;95366.00;;;11.28;100.00
28606;BME280;46498;49.968;7.754;2023-04-12T13:39:04;95349.00;;;11.15;100.00
28606;BME280;46498;49.968;7.754;2023-04-12T13:44:05;95352.00;;;10.69;100.00
28606;BME280;46498;49.968;7.754;2023-04-12T13:49:06;95351.00;;;10.45;100.00
28606;BME280;46498;49.968;7.754;2023-04-12T13:54:07;95340.00;;;10.50;100.00
28606;BME280;46498;49.968;7.754;2023-04-12T13:59:08;95344.00;;;10.65;100.00
28606;BME280;46498;49.968;7.754;2023-04-12T14:04:09;95354.00;;;10.63;100.00
28606;BME280;46498;49.968;7.754;2023-04-12T14:09:26;95362.00;;;10.56;100.00
28606;BME280;46498;49.968;7.754;2023-04-12T14:14:27;95368.00;;;10.49;100.00
28606;BME280;46498;49.968;7.754;2023-04-12T14:19:28;95369.00;;;10.23;100.00
28606;BME280;46498;49.968;7.754;2023-04-12T14:24:29;95378.00;;;10.38;100.00
28606;BME280;46498;49.968;7.754;2023-04-12T14:29:30;95374.00;;;10.37;100.00
28606;BME280;46498;49.968;7.754;2023-04-12T14:34:31;95387.00;;;10.33;100.00
28606;BME280;46498;49.968;7.754;2023-04-12T14:39:33;95402.00;;;10.32;100.00
28606;BME280;46498;49.968;7.754;2023-04-12T14:44:35;95403.00;;;10.26;100.00
28606;BME280;46498;49.968;7.754;2023-04-12T14:49:36;95420.00;;;10.17;100.00
28606;BME280;46498;49.968;7.754;2023-04-12T14:54:37;95388.00;;;9.98;100.00
28606;BME280;46498;49.968;7.754;2023-04-12T14:59:38;95389.00;;;10.83;100.00
28606;BME280;46498;49.968;7.754;2023-04-12T15:04:39;95372.00;;;11.18;100.00
28606;BME280;46498;49.968;7.754;2023-04-12T15:09:40;95371.00;;;11.40;98.08
28606;BME280;46498;49.968;7.754;2023-04-12T15:14:43;95353.00;;;11.47;96.86
28606;BME280;46498;49.968;7.754;2023-04-12T15:19:44;95358.00;;;11.89;94.11
28606;BME280;46498;49.968;7.754;2023-04-12T15:24:45;95357.00;;;11.72;81.90
28606;BME280;46498;49.968;7.754;2023-04-12T15:29:47;95374.00;;;11.42;84.88
28606;BME280;46498;49.968;7.754;2023-04-12T15:34:49;95378.00;;;11.63;84.70
28606;BME280;46498;49.968;7.754;2023-04-12T15:39:50;95376.00;;;11.58;86.48
28606;BME280;46498;49.968;7.754;2023-04-12T15:44:52;95380.00;;;11.68;89.27
28606;BME280;46498;49.968;7.754;2023-04-12T15:49:52;95390.00;;;11.29;90.04
28606;BME280;46498;49.968;7.754;2023-04-12T15:54:54;95403.00;;;11.33;85.52
28606;BME280;46498;49.968;7.754;2023-04-12T15:59:55;95408.00;;;11.36;82.36
28606;BME280;46498;49.968;7.754;2023-04-12T16:04:59;95409.00;;;11.47;78.54
28606;BME280;46498;49.968;7.754;2023-04-12T16:10:00;95421.00;;;11.41;72.51
28606;BME280;46498;49.968;7.754;2023-04-12T16:15:03;95414.00;;;11.40;70.59
28606;BME280;46498;49.968;7.754;2023-04-12T16:20:05;95416.00;;;11.43;74.78
28606;BME280;46498;49.968;7.754;2023-04-12T16:25:06;95415.00;;;11.46;64.80
28606;BME280;46498;49.968;7.754;2023-04-12T16:30:08;95423.00;;;11.39;61.47
28606;BME280;46498;49.968;7.754;2023-04-12T16:35:12;95415.00;;;11.39;59.92
28606;BME280;46498;49.968;7.754;2023-04-12T16:40:14;95418.00;;;11.21;61.47
28606;BME280;46498;49.968;7.754;2023-04-12T16:45:16;95427.00;;;11.13;63.37
28606;BME280;46498;49.968;7.754;2023-04-12T16:50:17;95421.00;;;11.07;63.43
28606;BME280;46498;49.968;7.754;2023-04-12T16:55:18;95433.00;;;10.86;67.17
28606;BME280;46498;49.968;7.754;2023-04-12T17:00:19;95440.00;;;10.75;69.29
28606;BME280;46498;49.968;7.754;2023-04-12T17:05:22;95447.00;;;10.55;67.68
28606;BME280;46498;49.968;7.754;2023-04-12T17:10:24;95444.00;;;10.56;66.10
28606;BME280;46498;49.968;7.754;2023-04-12T17:15:26;95451.00;;;10.57;65.23
28606;BME280;46498;49.968;7.754;2023-04-12T17:20:27;95454.00;;;10.52;66.44
28606;BME280;46498;49.968;7.754;2023-04-12T17:25:29;95458.00;;;10.40;66.01
28606;BME280;46498;49.968;7.754;2023-04-12T17:30:31;95460.00;;;10.32;65.51
28606;BME280;46498;49.968;7.754;2023-04-12T17:35:31;95458.00;;;9.98;68.01
28606;BME280;46498;49.968;7.754;2023-04-12T17:40:33;95470.00;;;9.80;70.38
28606;BME280;46498;49.968;7.754;2023-04-12T17:45:34;95479.00;;;9.60;71.08
28606;BME280;46498;49.968;7.754;2023-04-12T17:50:35;95484.00;;;9.47;72.93
28606;BME280;46498;49.968;7.754;2023-04-12T17:55:36;95491.00;;;9.41;73.23
28606;BME280;46498;49.968;7.754;2023-04-12T18:00:38;95496.00;;;9.39;73.18
28606;BME280;46498;49.968;7.754;2023-04-12T18:05:39;95523.00;;;9.30;73.82
28606;BME280;46498;49.968;7.754;2023-04-12T18:10:40;95590.00;;;8.85;83.15
28606;BME280;46498;49.968;7.754;2023-04-12T18:15:41;95634.00;;;7.72;100.00
28606;BME280;46498;49.968;7.754;2023-04-12T18:20:42;95659.00;;;6.76;100.00
28606;BME280;46498;49.968;7.754;2023-04-12T18:25:43;95644.00;;;6.04;100.00
28606;BME280;46498;49.968;7.754;2023-04-12T18:30:45;95653.00;;;5.67;100.00
28606;BME280;46498;49.968;7.754;2023-04-12T18:35:45;95652.00;;;5.46;100.00
28606;BME280;46498;49.968;7.754;2023-04-12T18:40:47;95633.00;;;5.37;100.00
28606;BME280;46498;49.968;7.754;2023-04-12T18:45:47;95619.00;;;5.19;100.00
28606;BME280;46498;49.968;7.754;2023-04-12T18:50:48;95590.00;;;5.14;100.00
28606;BME280;46498;49.968;7.754;2023-04-12T18:55:49;95594.00;;;5.24;100.00
28606;BME280;46498;49.968;7.754;2023-04-12T19:00:50;95588.00;;;5.09;100.00
28606;BME280;46498;49.968;7.754;2023-04-12T19:05:54;95594.00;;;5.08;100.00
28606;BME280;46498;49.968;7.754;2023-04-12T19:10:55;95599.00;;;5.03;100.00
28606;BME280;46498;49.968;7.754;2023-04-12T19:15:56;95611.00;;;4.97;100.00
28606;BME280;46498;49.968;7.754;2023-04-12T19:20:58;95618.00;;;4.94;100.00
28606;BME280;46498;49.968;7.754;2023-04-12T19:25:59;95620.00;;;4.97;100.00
28606;BME280;46498;49.968;7.754;2023-04-12T19:31:03;95625.00;;;4.99;100.00
28606;BME280;46498;49.968;7.754;2023-04-12T19:36:11;95633.00;;;4.98;100.00
28606;BME280;46498;49.968;7.754;2023-04-12T19:41:12;95633.00;;;4.98;100.00
28606;BME280;46498;49.968;7.754;2023-04-12T19:46:13;95620.00;;;4.85;100.00
28606;BME280;46498;49.968;7.754;2023-04-12T19:51:14;95629.00;;;4.78;100.00
28606;BME280;46498;49.968;7.754;2023-04-12T19:56:15;95633.00;;;4.74;100.00
28606;BME280;46498;49.968;7.754;2023-04-12T20:01:16;95639.00;;;4.73;100.00
28606;BME280;46498;49.968;7.754;2023-04-12T20:06:17;95657.00;;;4.75;100.00
28606;BME280;46498;49.968;7.754;2023-04-12T20:11:18;95660.00;;;4.79;100.00
28606;BME280;46498;49.968;7.754;2023-04-12T20:16:20;95666.00;;;4.78;100.00
28606;BME280;46498;49.968;7.754;2023-04-12T20:21:23;95672.00;;;4.76;100.00
28606;BME280;46498;49.968;7.754;2023-04-12T20:26:24;95667.00;;;4.63;100.00
28606;BME280;46498;49.968;7.754;2023-04-12T20:31:31;95660.00;;;4.67;100.00
28606;BME280;46498;49.968;7.754;2023-04-12T20:36:32;95656.00;;;4.66;100.00
28606;BME280;46498;49.968;7.754;2023-04-12T20:41:34;95653.00;;;4.53;100.00
28606;BME280;46498;49.968;7.754;2023-04-12T20:46:37;95654.00;;;4.50;100.00
28606;BME280;46498;49.968;7.754;2023-04-12T20:51:39;95647.00;;;4.53;100.00
28606;BME280;46498;49.968;7.754;2023-04-12T20:56:40;95640.00;;;4.52;100.00
28606;BME280;46498;49.968;7.754;2023-04-12T21:01:41;95648.00;;;4.60;100.00
28606;BME280;46498;49.968;7.754;2023-04-12T21:06:45;95647.00;;;4.64;100.00
28606;BME280;46498;49.968;7.754;2023-04-12T21:11:49;95651.00;;;4.63;100.00
28606;BME280;46498;49.968;7.754;2023-04-12T21:16:50;95660.00;;;4.62;100.00
28606;BME280;46498;49.968;7.754;2023-04-12T21:21:52;95658.00;;;4.66;100.00
28606;BME280;46498;49.968;7.754;2023-04-12T21:26:53;95674.00;;;4.84;100.00
28606;BME280;46498;49.968;7.754;2023-04-12T21:31:57;95672.00;;;4.75;100.00
28606;BME280;46498;49.968;7.754;2023-04-12T21:36:59;95679.00;;;4.82;100.00
28606;BME280;46498;49.968;7.754;2023-04-12T21:42:01;95681.00;;;4.70;100.00
28606;BME280;46498;49.968;7.754;2023-04-12T21:47:02;95685.00;;;4.76;100.00
28606;BME280;46498;49.968;7.754;2023-04-12T21:52:03;95682.00;;;4.69;100.00
28606;BME280;46498;49.968;7.754;2023-04-12T21:57:04;95678.00;;;4.59;100.00
28606;BME280;46498;49.968;7.754;2023-04-12T22:02:06;95688.00;;;4.66;100.00
28606;BME280;46498;49.968;7.754;2023-04-12T22:07:07;95695.00;;;4.64;100.00
28606;BME280;46498;49.968;7.754;2023-04-12T22:12:12;95701.00;;;4.76;100.00
28606;BME280;46498;49.968;7.754;2023-04-12T22:17:13;95702.00;;;4.66;100.00
28606;BME280;46498;49.968;7.754;2023-04-12T22:22:14;95702.00;;;4.61;100.00
28606;BME280;46498;49.968;7.754;2023-04-12T22:27:15;95709.00;;;4.53;100.00
28606;BME280;46498;49.968;7.754;2023-04-12T22:32:17;95709.00;;;4.55;100.00
28606;BME280;46498;49.968;7.754;2023-04-12T22:37:17;95712.00;;;4.53;100.00
28606;BME280;46498;49.968;7.754;2023-04-12T22:42:19;95712.00;;;4.53;100.00
28606;BME280;46498;49.968;7.754;2023-04-12T22:47:20;95719.00;;;4.35;100.00
28606;BME280;46498;49.968;7.754;2023-04-12T22:52:20;95720.00;;;4.36;100.00
28606;BME280;46498;49.968;7.754;2023-04-12T22:57:21;95716.00;;;4.28;100.00
28606;BME280;46498;49.968;7.754;2023-04-12T23:02:23;95719.00;;;4.23;100.00
28606;BME280;46498;49.968;7.754;2023-04-12T23:07:24;95722.00;;;4.26;100.00
28606;BME280;46498;49.968;7.754;2023-04-12T23:12:26;95714.00;;;4.23;100.00
28606;BME280;46498;49.968;7.754;2023-04-12T23:17:27;95718.00;;;4.31;100.00
28606;BME280;46498;49.968;7.754;2023-04-12T23:22:28;95714.00;;;4.30;100.00
28606;BME280;46498;49.968;7.754;2023-04-12T23:27:55;95717.00;;;4.18;100.00
28606;BME280;46498;49.968;7.754;2023-04-12T23:32:56;95694.00;;;4.14;100.00
28606;BME280;46498;49.968;7.754;2023-04-12T23:37:57;95680.00;;;4.05;100.00
28606;BME280;46498;49.968;7.754;2023-04-12T23:42:58;95685.00;;;4.08;100.00
28606;BME280;46498;49.968;7.754;2023-04-12T23:48:00;95682.00;;;4.20;100.00
28606;BME280;46498;49.968;7.754;2023-04-12T23:53:00;95670.00;;;4.10;100.00
28606;BME280;46498;49.968;7.754;2023-04-12T23:58:01;95666.00;;;3.71;100.00
